createdAt,value
2022-10-23T00:01:36.438Z,14.20
2022-10-23T00:04:07.581Z,14.20
2022-10-23T00:06:37.568Z,14.20
2022-10-23T00:09:08.009Z,14.20
2022-10-23T00:11:36.859Z,14.20
2022-10-23T00:14:07.251Z,14.30
2022-10-23T00:16:36.952Z,14.20
2022-10-23T00:19:06.177Z,14.30
2022-10-23T00:21:34.459Z,14.30
2022-10-23T00:24:02.671Z,14.30
2022-10-23T00:26:31.102Z,14.30
2022-10-23T00:28:59.217Z,14.30
2022-10-23T00:31:28.349Z,14.30
2022-10-23T00:33:58.027Z,14.30
2022-10-23T00:36:26.317Z,14.20
2022-10-23T00:38:54.492Z,14.20
2022-10-23T00:41:26.033Z,14.30
2022-10-23T00:44:01.305Z,14.30
2022-10-23T00:46:30.161Z,14.30
2022-10-23T00:49:00.535Z,14.30
2022-10-23T00:51:33.021Z,14.30
2022-10-23T00:54:25.587Z,14.20
2022-10-23T00:56:52.804Z,14.20
2022-10-23T00:59:22.347Z,14.30
2022-10-23T01:01:50.802Z,14.30
2022-10-23T01:04:20.888Z,14.30
2022-10-23T01:06:58.306Z,14.30
2022-10-23T01:09:33.393Z,14.30
2022-10-23T01:12:11.427Z,14.30
2022-10-23T01:14:48.669Z,14.30
2022-10-23T01:17:22.506Z,14.40
2022-10-23T01:20:02.962Z,14.40
2022-10-23T01:22:48.002Z,14.30
2022-10-23T01:25:30.977Z,14.30
2022-10-23T01:28:04.250Z,14.30
2022-10-23T01:30:34.570Z,14.30
2022-10-23T01:33:08.071Z,14.40
2022-10-23T01:35:50.347Z,14.40
2022-10-23T01:38:23.135Z,14.40
2022-10-23T01:40:58.515Z,14.30
2022-10-23T01:43:31.527Z,14.40
2022-10-23T01:46:04.387Z,14.40
2022-10-23T01:48:36.337Z,14.40
2022-10-23T01:51:07.496Z,14.40
2022-10-23T01:53:41.375Z,14.40
2022-10-23T01:56:14.102Z,14.40
2022-10-23T01:58:47.877Z,14.40
2022-10-23T02:01:19.891Z,14.40
2022-10-23T02:03:53.128Z,14.40
2022-10-23T02:06:21.561Z,14.40
2022-10-23T02:08:50.222Z,14.40
2022-10-23T02:11:20.972Z,14.50
2022-10-23T02:13:57.942Z,14.50
2022-10-23T02:16:33.193Z,14.50
2022-10-23T02:19:12.198Z,14.50
2022-10-23T02:21:47.761Z,14.40
2022-10-23T02:24:19.955Z,14.50
2022-10-23T02:26:53.922Z,14.50
2022-10-23T02:29:29.179Z,14.50
2022-10-23T02:31:59.784Z,14.50
2022-10-23T02:34:28.114Z,14.50
2022-10-23T02:36:56.362Z,14.50
2022-10-23T02:39:27.837Z,14.50
2022-10-23T02:42:02.971Z,14.40
2022-10-23T02:44:44.110Z,14.40
2022-10-23T02:47:22.374Z,14.40
2022-10-23T02:50:04.199Z,14.40
2022-10-23T02:52:38.465Z,14.50
2022-10-23T02:55:17.460Z,14.50
2022-10-23T02:57:55.399Z,14.50
2022-10-23T03:00:31.165Z,14.50
2022-10-23T03:03:02.317Z,14.50
2022-10-23T03:05:35.457Z,14.50
2022-10-23T03:08:05.052Z,14.50
2022-10-23T03:10:33.452Z,14.40
2022-10-23T03:13:01.764Z,14.50
2022-10-23T03:15:36.989Z,14.40
2022-10-23T03:18:05.582Z,14.40
2022-10-23T03:20:35.192Z,14.40
2022-10-23T03:23:03.420Z,14.40
2022-10-23T03:25:31.642Z,14.40
2022-10-23T03:28:00.609Z,14.40
2022-10-23T03:30:28.942Z,14.40
2022-10-23T03:32:58.489Z,14.40
2022-10-23T03:35:26.830Z,14.40
2022-10-23T03:37:55.061Z,14.30
2022-10-23T03:40:27.382Z,14.30
2022-10-23T03:42:55.744Z,14.30
2022-10-23T03:45:23.963Z,14.20
2022-10-23T03:47:52.718Z,14.20
2022-10-23T03:50:24.932Z,14.20
2022-10-23T03:52:53.195Z,14.20
2022-10-23T03:55:21.537Z,14.30
2022-10-23T03:57:50.375Z,14.30
2022-10-23T04:00:21.301Z,14.30
2022-10-23T04:02:52.040Z,14.20
2022-10-23T04:05:20.285Z,14.30
2022-10-23T04:07:58.460Z,14.20
2022-10-23T04:10:26.953Z,14.30
2022-10-23T04:12:55.169Z,14.30
2022-10-23T04:15:23.430Z,14.20
2022-10-23T04:17:51.738Z,14.30
2022-10-23T04:20:21.096Z,14.30
2022-10-23T04:22:52.400Z,14.30
2022-10-23T04:25:22.099Z,14.30
2022-10-23T04:27:52.420Z,14.20
2022-10-23T04:30:21.140Z,14.20
2022-10-23T04:32:51.898Z,14.20
2022-10-23T04:35:20.401Z,14.20
2022-10-23T04:37:48.672Z,14.30
2022-10-23T04:40:16.969Z,14.30
2022-10-23T04:42:46.645Z,14.30
2022-10-23T04:45:15.128Z,14.30
2022-10-23T04:47:43.857Z,14.30
2022-10-23T04:50:12.153Z,14.30
2022-10-23T04:52:59.124Z,14.30
2022-10-23T04:55:50.563Z,14.30
2022-10-23T04:58:27.221Z,14.30
2022-10-23T05:00:58.156Z,14.30
2022-10-23T05:03:30.042Z,14.20
2022-10-23T05:05:58.605Z,14.30
2022-10-23T05:08:47.208Z,14.20
2022-10-23T05:11:21.367Z,14.20
2022-10-23T05:13:53.087Z,14.20
2022-10-23T05:16:33.536Z,14.10
2022-10-23T05:19:02.241Z,14.20
2022-10-23T05:21:32.881Z,14.20
2022-10-23T05:24:02.179Z,14.10
2022-10-23T05:26:31.922Z,14.10
2022-10-23T05:29:06.218Z,14.10
2022-10-23T05:31:36.427Z,14.10
2022-10-23T05:34:13.425Z,14.10
2022-10-23T05:36:45.795Z,14.10
2022-10-23T05:39:15.907Z,14.10
2022-10-23T05:41:44.416Z,14.10
2022-10-23T05:44:15.815Z,14.10
2022-10-23T05:47:01.773Z,14.10
2022-10-23T05:49:51.919Z,14.00
2022-10-23T05:52:30.404Z,14.00
2022-10-23T05:55:13.683Z,14.00
2022-10-23T05:57:52.065Z,13.90
2022-10-23T06:00:31.416Z,13.90
2022-10-23T06:03:19.396Z,13.90
2022-10-23T06:05:51.504Z,14.00
2022-10-23T06:08:22.685Z,13.90
2022-10-23T06:10:52.121Z,13.90
2022-10-23T06:13:21.051Z,13.90
2022-10-23T06:15:51.200Z,13.90
2022-10-23T06:18:22.018Z,13.90
2022-10-23T06:21:02.299Z,13.90
2022-10-23T06:23:32.289Z,13.90
2022-10-23T06:26:21.143Z,13.90
2022-10-23T06:28:59.961Z,13.90
2022-10-23T06:31:30.004Z,13.90
2022-10-23T06:34:00.464Z,14.00
2022-10-23T06:36:30.898Z,13.90
2022-10-23T06:39:17.845Z,14.00
2022-10-23T06:42:09.165Z,14.00
2022-10-23T06:45:04.720Z,14.10
2022-10-23T06:47:51.178Z,14.10
2022-10-23T06:50:38.791Z,14.10
2022-10-23T06:53:13.229Z,14.20
2022-10-23T06:55:50.140Z,14.20
2022-10-23T06:58:21.435Z,14.30
2022-10-23T07:01:13.728Z,14.30
2022-10-23T07:03:45.588Z,14.40
2022-10-23T07:06:14.410Z,14.40
2022-10-23T07:08:42.900Z,14.30
2022-10-23T07:11:31.237Z,14.30
2022-10-23T07:13:59.852Z,14.40
2022-10-23T07:16:28.216Z,14.40
2022-10-23T07:19:01.224Z,14.40
2022-10-23T07:21:30.727Z,14.40
2022-10-23T07:24:13.217Z,14.40
2022-10-23T07:26:42.362Z,14.50
2022-10-23T07:29:10.726Z,14.50
2022-10-23T07:31:39.407Z,14.50
2022-10-23T07:34:27.721Z,14.60
2022-10-23T07:37:14.819Z,14.60
2022-10-23T07:39:43.207Z,14.60
2022-10-23T07:42:12.057Z,14.60
2022-10-23T07:44:42.103Z,14.70
2022-10-23T07:47:10.584Z,14.70
2022-10-23T07:49:43.137Z,14.70
2022-10-23T07:52:11.735Z,14.70
2022-10-23T07:54:59.856Z,14.70
2022-10-23T07:57:31.633Z,14.80
2022-10-23T08:00:11.993Z,14.90
2022-10-23T08:02:43.234Z,14.90
2022-10-23T08:05:14.630Z,15.00
2022-10-23T08:07:50.921Z,15.10
2022-10-23T08:10:19.422Z,15.10
2022-10-23T08:12:47.707Z,15.10
2022-10-23T08:15:16.867Z,15.20
2022-10-23T08:17:54.995Z,15.20
2022-10-23T08:20:49.038Z,15.30
2022-10-23T08:23:20.697Z,15.30
2022-10-23T08:25:50.012Z,15.30
2022-10-23T08:28:19.475Z,15.50
2022-10-23T08:30:56.043Z,15.60
2022-10-23T08:33:24.643Z,15.70
2022-10-23T08:35:54.244Z,15.80
2022-10-23T08:38:31.632Z,15.80
2022-10-23T08:41:02.806Z,15.90
2022-10-23T08:43:55.273Z,16.00
2022-10-23T08:46:37.821Z,16.00
2022-10-23T08:49:41.620Z,16.00
2022-10-23T08:52:18.755Z,16.10
2022-10-23T08:54:58.192Z,16.10
2022-10-23T08:57:33.465Z,16.10
2022-10-23T09:00:08.309Z,16.10
2022-10-23T09:02:40.726Z,16.10
2022-10-23T09:05:17.826Z,16.10
2022-10-23T09:07:59.094Z,16.20
2022-10-23T09:10:38.640Z,16.20
2022-10-23T09:13:31.570Z,16.30
2022-10-23T09:16:04.843Z,16.30
2022-10-23T09:18:33.472Z,16.40
2022-10-23T09:21:02.281Z,16.40
2022-10-23T09:23:32.033Z,16.50
2022-10-23T09:26:03.561Z,16.60
2022-10-23T09:28:33.815Z,16.70
2022-10-23T09:31:08.055Z,16.70
2022-10-23T09:33:38.638Z,16.80
2022-10-23T09:36:09.367Z,16.90
2022-10-23T09:38:41.088Z,16.90
2022-10-23T09:41:15.608Z,16.90
2022-10-23T09:43:43.908Z,16.90
2022-10-23T09:46:12.902Z,16.90
2022-10-23T09:48:42.385Z,17.00
2022-10-23T09:51:19.768Z,17.00
2022-10-23T09:53:54.140Z,17.00
2022-10-23T09:56:28.218Z,17.10
2022-10-23T09:58:59.048Z,17.20
2022-10-23T10:01:29.405Z,17.30
2022-10-23T10:04:10.602Z,17.30
2022-10-23T10:09:17.799Z,17.40
2022-10-23T10:11:51.176Z,17.40
2022-10-23T10:14:44.451Z,17.40
2022-10-23T10:17:21.038Z,17.40
2022-10-23T10:20:06.970Z,17.40
2022-10-23T10:22:41.076Z,17.40
2022-10-23T10:25:17.139Z,17.30
2022-10-23T10:27:59.084Z,17.30
2022-10-23T10:30:35.774Z,17.30
2022-10-23T10:33:10.653Z,17.30
2022-10-23T10:35:46.907Z,17.30
2022-10-23T10:38:30.675Z,17.30
2022-10-23T10:41:23.659Z,17.30
2022-10-23T10:44:07.511Z,17.40
2022-10-23T10:46:40.361Z,17.30
2022-10-23T10:49:15.110Z,17.40
2022-10-23T10:52:15.918Z,17.40
2022-10-23T10:54:53.744Z,17.40
2022-10-23T10:57:32.282Z,17.30
2022-10-23T11:00:06.620Z,17.40
2022-10-23T11:02:41.843Z,17.30
2022-10-23T11:05:20.991Z,17.40
2022-10-23T11:07:56.447Z,17.40
2022-10-23T11:10:24.764Z,17.50
2022-10-23T11:12:56.873Z,17.50
2022-10-23T11:15:36.064Z,17.50
2022-10-23T11:18:08.111Z,17.50
2022-10-23T11:21:08.209Z,17.50
2022-10-23T11:24:06.683Z,17.40
2022-10-23T11:26:47.897Z,17.40
2022-10-23T11:30:00.828Z,17.40
2022-10-23T11:32:44.080Z,17.40
2022-10-23T11:35:23.912Z,17.40
2022-10-23T11:38:08.844Z,17.30
2022-10-23T11:40:37.180Z,17.30
2022-10-23T11:43:05.542Z,17.30
2022-10-23T11:45:42.018Z,17.40
2022-10-23T11:48:23.373Z,17.40
2022-10-23T11:50:55.048Z,17.40
2022-10-23T11:53:29.202Z,17.40
2022-10-23T11:56:04.381Z,17.50
2022-10-23T11:58:44.198Z,17.70
2022-10-23T12:01:34.733Z,17.90
2022-10-23T12:04:08.083Z,18.00
2022-10-23T12:06:42.902Z,18.00
2022-10-23T12:09:26.698Z,18.10
2022-10-23T12:12:17.843Z,18.20
2022-10-23T12:14:47.883Z,18.30
2022-10-23T12:17:37.056Z,18.40
2022-10-23T12:20:26.861Z,18.50
2022-10-23T12:23:31.727Z,18.50
2022-10-23T12:26:31.860Z,18.60
2022-10-23T12:29:07.459Z,18.50
2022-10-23T12:31:48.160Z,18.40
2022-10-23T12:34:32.175Z,18.40
2022-10-23T12:37:15.209Z,18.20
2022-10-23T12:39:43.737Z,18.10
2022-10-23T12:42:19.786Z,18.00
2022-10-23T12:45:00.273Z,18.00
2022-10-23T12:47:29.632Z,18.00
2022-10-23T12:49:59.259Z,17.90
2022-10-23T12:52:27.498Z,17.80
2022-10-23T12:54:55.820Z,17.80
2022-10-23T12:57:26.686Z,17.60
2022-10-23T12:59:59.248Z,17.60
2022-10-23T13:02:29.368Z,17.60
2022-10-23T13:05:02.022Z,17.40
2022-10-23T13:07:34.862Z,17.40
2022-10-23T13:10:06.008Z,17.40
2022-10-23T13:12:39.868Z,17.40
2022-10-23T13:15:19.793Z,17.30
2022-10-23T13:18:00.228Z,17.30
2022-10-23T13:20:31.885Z,17.30
2022-10-23T13:23:03.144Z,17.30
2022-10-23T13:25:33.367Z,17.20
2022-10-23T13:28:15.982Z,17.20
2022-10-23T13:30:46.355Z,17.10
2022-10-23T13:33:24.261Z,17.10
2022-10-23T13:36:01.511Z,17.10
2022-10-23T13:38:31.369Z,17.10
2022-10-23T13:41:00.807Z,17.10
2022-10-23T13:43:30.810Z,17.10
2022-10-23T13:45:59.823Z,17.10
2022-10-23T13:48:28.607Z,17.00
2022-10-23T13:51:11.621Z,17.00
2022-10-23T13:53:40.056Z,16.90
2022-10-23T13:56:10.817Z,16.90
2022-10-23T13:58:39.115Z,16.90
2022-10-23T14:01:07.995Z,16.80
2022-10-23T14:03:36.793Z,16.80
2022-10-23T14:06:07.121Z,16.80
2022-10-23T14:08:37.558Z,16.80
2022-10-23T14:11:05.960Z,16.80
2022-10-23T14:13:34.218Z,16.80
2022-10-23T14:16:02.507Z,16.80
2022-10-23T14:18:30.761Z,16.70
2022-10-23T14:21:01.468Z,16.80
2022-10-23T14:23:31.111Z,16.80
2022-10-23T14:26:03.436Z,16.80
2022-10-23T14:28:31.741Z,16.80
2022-10-23T14:31:05.739Z,16.80
2022-10-23T14:33:34.011Z,16.70
2022-10-23T14:36:02.370Z,16.70
2022-10-23T14:38:32.015Z,16.70
2022-10-23T14:41:00.222Z,16.70
2022-10-23T14:43:28.510Z,16.70
2022-10-23T14:45:56.929Z,16.60
2022-10-23T14:48:25.050Z,16.60
2022-10-23T14:50:53.461Z,16.60
2022-10-23T14:53:21.668Z,16.50
2022-10-23T14:55:51.207Z,16.60
2022-10-23T14:58:21.720Z,16.60
2022-10-23T15:00:59.167Z,16.50
2022-10-23T15:03:28.170Z,16.50
2022-10-23T15:05:56.619Z,16.50
2022-10-23T15:08:32.014Z,16.50
2022-10-23T15:11:02.178Z,16.50
2022-10-23T15:13:30.730Z,16.50
2022-10-23T15:16:07.106Z,16.50
2022-10-23T15:21:10.486Z,16.40
2022-10-23T15:23:42.232Z,16.40
2022-10-23T15:26:13.285Z,16.40
2022-10-23T15:28:41.513Z,16.40
2022-10-23T15:31:40.984Z,16.40
2022-10-23T15:34:10.405Z,16.40
2022-10-23T15:36:39.161Z,16.40
2022-10-23T15:39:10.122Z,16.30
2022-10-23T15:41:40.970Z,16.30
2022-10-23T15:44:10.390Z,16.30
2022-10-23T15:46:38.929Z,16.20
2022-10-23T15:49:08.484Z,16.30
2022-10-23T15:51:37.997Z,16.20
2022-10-23T15:54:06.488Z,16.20
2022-10-23T15:56:36.853Z,16.20
2022-10-23T15:59:05.439Z,16.20
2022-10-23T16:01:33.698Z,16.20
2022-10-23T16:04:02.152Z,16.20
2022-10-23T16:06:30.354Z,16.20
2022-10-23T16:08:58.639Z,16.10
2022-10-23T16:11:29.332Z,16.10
2022-10-23T16:14:00.243Z,16.10
2022-10-23T16:16:29.667Z,16.10
2022-10-23T16:19:00.442Z,16.10
2022-10-23T16:21:30.615Z,16.10
2022-10-23T16:24:00.772Z,16.10
2022-10-23T16:26:29.922Z,16.00
2022-10-23T16:29:01.896Z,16.00
2022-10-23T16:31:30.970Z,16.00
2022-10-23T16:34:00.108Z,16.00
2022-10-23T16:36:28.610Z,16.00
2022-10-23T16:39:36.281Z,16.00
2022-10-23T16:42:23.763Z,16.00
2022-10-23T16:45:06.707Z,15.90
2022-10-23T16:47:35.086Z,15.90
2022-10-23T16:50:03.297Z,15.90
2022-10-23T16:52:31.535Z,15.90
2022-10-23T16:54:59.814Z,15.90
2022-10-23T16:57:28.444Z,15.90
2022-10-23T16:59:56.754Z,15.90
2022-10-23T17:02:26.525Z,15.80
2022-10-23T17:04:57.382Z,15.90
2022-10-23T17:07:25.620Z,15.90
2022-10-23T17:09:53.806Z,15.90
2022-10-23T17:12:22.067Z,15.90
2022-10-23T17:14:50.797Z,15.90
2022-10-23T17:17:19.085Z,15.90
2022-10-23T17:19:48.646Z,15.80
2022-10-23T17:22:17.053Z,15.90
2022-10-23T17:24:48.710Z,15.80
2022-10-23T17:27:20.254Z,15.80
2022-10-23T17:29:48.520Z,15.80
2022-10-23T17:34:54.530Z,15.80
2022-10-23T17:37:22.752Z,15.80
2022-10-23T17:39:50.983Z,15.80
2022-10-23T17:42:19.201Z,15.70
2022-10-23T17:44:47.958Z,15.70
2022-10-23T17:47:16.223Z,15.70
2022-10-23T17:49:46.149Z,15.70
2022-10-23T17:52:16.813Z,15.60
2022-10-23T17:54:45.083Z,15.60
2022-10-23T17:57:13.378Z,15.60
2022-10-23T17:59:41.590Z,15.60
2022-10-23T18:02:13.069Z,15.60
2022-10-23T18:04:41.565Z,15.60
2022-10-23T18:07:09.777Z,15.50
2022-10-23T18:09:39.400Z,15.40
2022-10-23T18:12:07.760Z,15.40
2022-10-23T18:14:37.452Z,15.30
2022-10-23T18:17:06.037Z,15.20
2022-10-23T18:19:34.408Z,15.10
2022-10-23T18:22:02.587Z,15.10
2022-10-23T18:24:31.097Z,15.10
2022-10-23T18:27:00.651Z,15.00
2022-10-23T18:29:28.900Z,14.90
2022-10-23T18:31:57.139Z,14.80
2022-10-23T18:34:26.674Z,14.80
2022-10-23T18:36:56.510Z,14.70
2022-10-23T18:39:26.810Z,14.70
2022-10-23T18:41:57.397Z,14.70
2022-10-23T18:44:29.449Z,14.60
2022-10-23T18:46:59.714Z,14.60
2022-10-23T18:49:28.794Z,14.60
2022-10-23T18:51:58.384Z,14.50
2022-10-23T18:54:26.825Z,14.50
2022-10-23T18:56:55.015Z,14.40
2022-10-23T18:59:23.888Z,14.30
2022-10-23T19:01:53.668Z,14.30
2022-10-23T19:04:24.275Z,14.20
2022-10-23T19:06:53.834Z,14.10
2022-10-23T19:09:22.266Z,14.20
2022-10-23T19:11:50.700Z,14.10
2022-10-23T19:14:18.998Z,14.10
2022-10-23T19:16:58.169Z,14.00
2022-10-23T19:19:30.803Z,14.00
2022-10-23T19:22:03.496Z,14.00
2022-10-23T19:24:35.198Z,14.00
2022-10-23T19:27:04.203Z,14.00
2022-10-23T19:29:33.290Z,13.90
2022-10-23T19:32:03.227Z,13.90
2022-10-23T19:34:31.437Z,13.80
2022-10-23T19:36:59.743Z,13.80
2022-10-23T19:39:28.052Z,13.80
2022-10-23T19:41:57.105Z,13.70
2022-10-23T19:44:25.490Z,13.70
2022-10-23T19:46:53.870Z,13.70
2022-10-23T19:49:23.980Z,13.70
2022-10-23T19:51:52.891Z,13.70
2022-10-23T19:54:22.472Z,13.60
2022-10-23T19:56:51.173Z,13.50
2022-10-23T19:59:19.703Z,13.50
2022-10-23T20:01:49.123Z,13.50
2022-10-23T20:04:18.493Z,13.50
2022-10-23T20:06:48.424Z,13.40
2022-10-23T20:09:16.692Z,13.40
2022-10-23T20:11:45.439Z,13.40
2022-10-23T20:14:14.151Z,13.40
2022-10-23T20:16:44.834Z,13.30
2022-10-23T20:21:51.084Z,13.30
2022-10-23T20:24:21.110Z,13.30
2022-10-23T20:26:50.763Z,13.20
2022-10-23T20:29:19.531Z,13.20
2022-10-23T20:31:47.820Z,13.10
2022-10-23T20:34:16.407Z,13.10
2022-10-23T20:36:47.223Z,13.10
2022-10-23T20:39:18.757Z,13.10
2022-10-23T20:41:49.461Z,13.00
2022-10-23T20:44:19.218Z,13.00
2022-10-23T20:46:47.695Z,13.00
2022-10-23T20:49:16.675Z,12.90
2022-10-23T20:51:45.166Z,12.90
2022-10-23T20:54:13.466Z,12.80
2022-10-23T20:56:43.407Z,12.80
2022-10-23T20:59:13.386Z,12.70
2022-10-23T21:01:42.496Z,12.70
2022-10-23T21:04:13.357Z,12.70
2022-10-23T21:07:04.510Z,12.70
2022-10-23T21:09:31.672Z,12.70
2022-10-23T21:12:01.227Z,12.70
2022-10-23T21:14:29.738Z,12.60
2022-10-23T21:16:58.019Z,12.60
2022-10-23T21:19:26.309Z,12.60
2022-10-23T21:21:56.840Z,12.60
2022-10-23T21:24:25.203Z,12.60
2022-10-23T21:26:53.474Z,12.50
2022-10-23T21:29:23.139Z,12.60
2022-10-23T21:31:55.777Z,12.60
2022-10-23T21:34:24.672Z,12.60
2022-10-23T21:39:43.427Z,12.60
2022-10-23T21:42:12.587Z,12.60
2022-10-23T21:44:42.186Z,12.50
2022-10-23T21:47:10.745Z,12.50
2022-10-23T21:49:38.997Z,12.50
2022-10-23T21:52:07.440Z,12.60
2022-10-23T21:54:35.650Z,12.60
2022-10-23T21:57:04.292Z,12.70
2022-10-23T21:59:36.036Z,12.70
2022-10-23T22:02:06.049Z,12.70
2022-10-23T22:04:34.407Z,12.70
2022-10-23T22:07:03.849Z,12.70
2022-10-23T22:09:33.231Z,12.70
2022-10-23T22:12:02.208Z,12.70
2022-10-23T22:14:30.844Z,12.70
2022-10-23T22:16:59.625Z,12.70
2022-10-23T22:19:29.428Z,12.80
2022-10-23T22:21:57.676Z,12.80
2022-10-23T22:24:26.150Z,12.80
2022-10-23T22:26:56.347Z,12.80
2022-10-23T22:29:27.003Z,12.80
2022-10-23T22:31:55.388Z,12.90
2022-10-23T22:37:17.667Z,12.90
2022-10-23T22:39:45.869Z,12.90
2022-10-23T22:42:14.115Z,12.90
2022-10-23T22:44:44.571Z,12.90
2022-10-23T22:47:12.863Z,12.90
2022-10-23T22:49:42.427Z,12.90
2022-10-23T22:52:10.715Z,12.90
2022-10-23T22:54:38.935Z,12.90
2022-10-23T22:57:07.276Z,12.90
2022-10-23T22:59:35.471Z,12.90
2022-10-23T23:02:03.757Z,12.90
2022-10-23T23:04:39.493Z,12.90
2022-10-23T23:07:11.832Z,13.00
2022-10-23T23:09:41.883Z,12.90
2022-10-23T23:12:12.423Z,12.90
2022-10-23T23:14:41.224Z,12.90
2022-10-23T23:17:10.047Z,12.90
2022-10-23T23:19:38.503Z,12.90
2022-10-23T23:22:06.783Z,12.90
2022-10-23T23:24:36.497Z,12.90
2022-10-23T23:27:04.801Z,12.90
2022-10-23T23:29:33.258Z,12.90
2022-10-23T23:32:01.629Z,12.80
2022-10-23T23:34:29.929Z,12.80
2022-10-23T23:36:58.254Z,12.80
2022-10-23T23:39:28.568Z,12.80
2022-10-23T23:41:58.434Z,12.80
2022-10-23T23:44:26.723Z,12.80
2022-10-23T23:46:55.045Z,12.80
2022-10-23T23:49:23.447Z,12.80
2022-10-23T23:51:51.875Z,12.80
2022-10-23T23:54:20.155Z,12.80
2022-10-23T23:56:48.495Z,12.80
2022-10-23T23:59:18.081Z,12.80
